createdAt,value
2019-03-10T00:02:21.494Z,5.97
2019-03-10T00:04:55.049Z,11.83
2019-03-10T00:07:28.782Z,6.65
2019-03-10T00:10:02.433Z,9.35
2019-03-10T00:12:36.963Z,6.85
2019-03-10T00:15:12.370Z,8.25
2019-03-10T00:17:45.861Z,9.93
2019-03-10T00:20:19.100Z,7.17
2019-03-10T00:22:53.553Z,9.35
2019-03-10T00:25:27.049Z,4.75
2019-03-10T00:28:00.857Z,7.03
2019-03-10T00:30:34.246Z,9.10
2019-03-10T00:33:08.261Z,5.35
2019-03-10T00:35:41.490Z,9.58
2019-03-10T00:38:15.114Z,6.17
2019-03-10T00:41:02.409Z,8.70
2019-03-10T00:43:53.982Z,9.68
2019-03-10T00:46:42.136Z,8.33
2019-03-10T00:49:53.757Z,10.78
2019-03-10T00:52:39.952Z,10.68
2019-03-10T00:55:15.731Z,9.83
2019-03-10T00:57:50.615Z,9.00
2019-03-10T01:00:24.266Z,9.55
2019-03-10T01:02:58.650Z,8.88
2019-03-10T01:05:32.876Z,8.63
2019-03-10T01:08:06.458Z,8.70
2019-03-10T01:10:40.630Z,10.65
2019-03-10T01:13:14.086Z,13.55
2019-03-10T01:15:47.859Z,9.18
2019-03-10T01:18:21.807Z,10.13
2019-03-10T01:20:58.557Z,7.42
2019-03-10T01:23:32.483Z,9.85
2019-03-10T01:26:06.312Z,12.63
2019-03-10T01:28:40.081Z,11.20
2019-03-10T01:31:39.030Z,10.55
2019-03-10T01:34:32.102Z,10.45
2019-03-10T01:37:09.048Z,9.53
2019-03-10T01:39:44.439Z,10.82
2019-03-10T01:42:21.837Z,11.05
2019-03-10T01:44:55.097Z,11.95
2019-03-10T01:47:33.353Z,12.40
2019-03-10T01:50:09.105Z,12.28
2019-03-10T01:52:42.954Z,12.28
2019-03-10T01:55:16.872Z,12.35
2019-03-10T01:57:51.677Z,10.95
2019-03-10T02:00:27.304Z,11.90
2019-03-10T02:03:08.573Z,12.40
2019-03-10T02:05:44.852Z,11.97
2019-03-10T02:08:24.485Z,11.95
2019-03-10T02:10:57.882Z,14.20
2019-03-10T02:13:31.179Z,11.90
2019-03-10T02:16:04.850Z,6.03
2019-03-10T02:18:39.023Z,13.13
2019-03-10T02:21:12.753Z,12.60
2019-03-10T02:23:46.078Z,14.35
2019-03-10T02:26:19.807Z,11.03
2019-03-10T02:28:53.783Z,16.65
2019-03-10T02:31:27.664Z,14.28
2019-03-10T02:34:01.342Z,8.18
2019-03-10T02:36:35.665Z,15.50
2019-03-10T02:39:09.494Z,15.05
2019-03-10T02:41:43.465Z,15.98
2019-03-10T02:44:16.952Z,17.10
2019-03-10T02:46:50.551Z,16.02
2019-03-10T02:49:25.374Z,16.87
2019-03-10T02:51:59.180Z,16.42
2019-03-10T02:54:32.650Z,15.15
2019-03-10T02:57:08.203Z,18.87
2019-03-10T02:59:42.124Z,13.15
2019-03-10T03:02:16.805Z,14.28
2019-03-10T03:04:50.041Z,14.30
2019-03-10T03:07:24.235Z,7.37
2019-03-10T03:09:57.764Z,13.32
2019-03-10T03:12:35.140Z,9.88
2019-03-10T03:15:09.944Z,15.28
2019-03-10T03:17:43.521Z,13.83
2019-03-10T03:20:16.926Z,9.20
2019-03-10T03:22:50.792Z,11.33
2019-03-10T03:25:24.188Z,8.58
2019-03-10T03:27:57.981Z,10.10
2019-03-10T03:30:50.990Z,15.30
2019-03-10T03:33:27.541Z,14.33
2019-03-10T03:36:05.800Z,10.65
2019-03-10T03:38:45.213Z,16.05
2019-03-10T03:44:17.025Z,17.35
2019-03-10T03:46:53.571Z,19.30
2019-03-10T03:49:32.548Z,14.78
2019-03-10T03:52:06.650Z,14.73
2019-03-10T03:54:40.381Z,12.90
2019-03-10T03:57:14.499Z,11.28
2019-03-10T03:59:48.408Z,9.70
2019-03-10T04:02:30.815Z,19.55
2019-03-10T04:04:58.099Z,17.45
2019-03-10T04:07:31.662Z,17.87
2019-03-10T04:10:06.139Z,11.18
2019-03-10T04:12:39.622Z,17.20
2019-03-10T04:15:15.863Z,17.23
2019-03-10T04:17:49.216Z,7.78
2019-03-10T04:20:23.348Z,14.23
2019-03-10T04:22:56.612Z,12.20
2019-03-10T04:25:31.268Z,8.25
2019-03-10T04:28:07.780Z,8.53
2019-03-10T04:30:41.950Z,12.65
2019-03-10T04:33:15.794Z,7.83
2019-03-10T04:35:50.486Z,15.53
2019-03-10T04:38:24.000Z,9.25
2019-03-10T04:40:58.106Z,18.05
2019-03-10T04:43:31.803Z,18.45
2019-03-10T04:46:07.722Z,16.45
2019-03-10T04:48:41.655Z,18.10
2019-03-10T04:51:15.725Z,18.70
2019-03-10T04:53:51.448Z,15.25
2019-03-10T04:56:35.345Z,17.55
2019-03-10T04:59:11.418Z,19.02
2019-03-10T05:01:45.264Z,8.90
2019-03-10T05:04:19.762Z,11.18
2019-03-10T05:06:57.514Z,14.35
2019-03-10T05:09:29.790Z,14.65
2019-03-10T05:12:04.512Z,11.08
2019-03-10T05:14:44.893Z,15.68
2019-03-10T05:17:18.133Z,17.00
2019-03-10T05:19:51.872Z,17.40
2019-03-10T05:22:25.140Z,13.50
2019-03-10T05:24:59.127Z,14.60
2019-03-10T05:27:32.460Z,14.55
2019-03-10T05:30:06.098Z,16.35
2019-03-10T05:32:39.527Z,17.20
2019-03-10T05:35:13.563Z,16.30
2019-03-10T05:37:46.837Z,16.37
2019-03-10T05:40:20.944Z,13.90
2019-03-10T05:42:54.686Z,14.95
2019-03-10T05:45:28.421Z,17.00
2019-03-10T05:48:01.795Z,17.67
2019-03-10T05:50:35.600Z,16.80
2019-03-10T05:53:09.320Z,18.00
2019-03-10T05:55:43.117Z,17.82
2019-03-10T05:58:16.683Z,16.17
2019-03-10T06:00:50.616Z,17.05
2019-03-10T06:03:24.142Z,19.02
2019-03-10T06:06:04.598Z,19.92
2019-03-10T06:08:33.029Z,20.12
2019-03-10T06:11:07.419Z,20.15
2019-03-10T06:13:40.613Z,20.50
2019-03-10T06:16:14.038Z,20.15
2019-03-10T06:18:47.449Z,16.87
2019-03-10T06:21:21.235Z,18.50
2019-03-10T06:23:54.949Z,17.90
2019-03-10T06:26:28.832Z,19.17
2019-03-10T06:29:02.453Z,19.23
2019-03-10T06:31:35.917Z,16.02
2019-03-10T06:34:09.266Z,18.92
2019-03-10T06:36:43.489Z,15.55
2019-03-10T06:39:16.784Z,18.10
2019-03-10T06:41:50.659Z,15.53
2019-03-10T06:44:24.691Z,13.80
2019-03-10T06:47:15.056Z,12.70
2019-03-10T06:49:36.990Z,17.00
2019-03-10T06:52:12.254Z,17.07
2019-03-10T06:54:47.343Z,18.45
2019-03-10T06:57:21.420Z,18.17
2019-03-10T06:59:54.831Z,17.75
2019-03-10T07:05:28.017Z,18.05
2019-03-10T07:08:03.449Z,18.20
2019-03-10T07:10:37.477Z,16.42
2019-03-10T07:13:11.500Z,18.20
2019-03-10T07:15:44.872Z,18.62
2019-03-10T07:18:18.568Z,18.42
2019-03-10T07:20:58.008Z,18.25
2019-03-10T07:23:33.551Z,15.27
2019-03-10T07:26:09.434Z,13.08
2019-03-10T07:28:47.049Z,15.98
2019-03-10T07:31:26.677Z,18.15
2019-03-10T07:34:16.360Z,18.05
2019-03-10T07:36:57.611Z,19.57
2019-03-10T07:39:50.649Z,11.80
2019-03-10T07:42:29.392Z,20.43
2019-03-10T07:45:05.467Z,18.52
2019-03-10T07:47:54.560Z,18.85
2019-03-10T07:50:32.176Z,17.60
2019-03-10T07:53:18.784Z,17.52
2019-03-10T07:55:53.438Z,18.42
2019-03-10T07:58:33.941Z,17.98
2019-03-10T08:01:16.311Z,16.67
2019-03-10T08:03:50.985Z,19.70
2019-03-10T08:06:29.348Z,17.48
2019-03-10T08:09:10.120Z,15.63
2019-03-10T08:11:46.375Z,17.70
2019-03-10T08:14:21.775Z,16.27
2019-03-10T08:17:17.294Z,17.00
2019-03-10T08:20:19.877Z,19.75
2019-03-10T08:22:56.135Z,19.80
2019-03-10T08:25:46.606Z,20.50
2019-03-10T08:28:33.696Z,18.02
2019-03-10T08:31:17.220Z,19.37
2019-03-10T08:34:03.714Z,20.25
2019-03-10T08:36:44.238Z,21.80
2019-03-10T08:39:33.428Z,23.35
2019-03-10T08:42:20.905Z,20.48
2019-03-10T08:45:02.952Z,21.07
2019-03-10T08:47:46.931Z,20.88
2019-03-10T08:50:37.223Z,21.57
2019-03-10T08:53:18.741Z,20.02
2019-03-10T08:55:55.109Z,22.02
2019-03-10T08:58:54.772Z,22.10
2019-03-10T09:01:54.469Z,20.85
2019-03-10T09:04:56.757Z,20.88
2019-03-10T09:07:40.617Z,19.05
2019-03-10T09:10:18.977Z,18.17
2019-03-10T09:13:14.726Z,19.98
2019-03-10T09:16:07.702Z,18.67
2019-03-10T09:18:42.384Z,18.90
2019-03-10T09:21:22.671Z,19.75
2019-03-10T09:23:57.348Z,20.92
2019-03-10T09:26:37.684Z,19.80
2019-03-10T09:29:28.635Z,19.17
2019-03-10T09:32:10.995Z,20.32
2019-03-10T09:34:47.972Z,21.97
2019-03-10T09:37:22.368Z,22.48
2019-03-10T09:39:57.272Z,21.35
2019-03-10T09:42:48.124Z,22.52
2019-03-10T09:45:34.988Z,19.15
2019-03-10T09:48:15.232Z,22.13
2019-03-10T09:50:59.382Z,22.15
2019-03-10T09:53:41.265Z,20.65
2019-03-10T09:56:16.310Z,21.37
2019-03-10T09:58:50.842Z,22.00
2019-03-10T10:01:25.329Z,21.35
2019-03-10T10:04:05.749Z,22.93
2019-03-10T10:06:41.351Z,22.52
2019-03-10T10:09:24.987Z,23.80
2019-03-10T10:12:12.689Z,24.63
2019-03-10T10:14:44.022Z,25.15
2019-03-10T10:17:25.169Z,24.23
2019-03-10T10:19:59.708Z,25.20
2019-03-10T10:22:41.110Z,23.98
2019-03-10T10:25:16.115Z,25.57
2019-03-10T10:28:12.441Z,25.00
2019-03-10T10:30:56.604Z,25.15
2019-03-10T10:33:37.160Z,25.02
2019-03-10T10:36:20.486Z,23.87
2019-03-10T10:38:58.656Z,25.77
2019-03-10T10:41:36.111Z,29.35
2019-03-10T10:44:13.839Z,25.55
2019-03-10T10:46:53.917Z,24.47
2019-03-10T10:49:44.670Z,25.55
2019-03-10T10:52:35.337Z,26.73
2019-03-10T10:55:12.278Z,25.65
2019-03-10T10:57:47.583Z,25.90
2019-03-10T11:00:38.627Z,24.57
2019-03-10T11:03:20.533Z,26.77
2019-03-10T11:06:07.668Z,26.77
2019-03-10T11:08:48.192Z,25.52
2019-03-10T11:11:25.541Z,27.17
2019-03-10T11:14:15.778Z,26.70
2019-03-10T11:16:56.194Z,25.95
2019-03-10T11:30:36.011Z,29.85
2019-03-10T11:33:19.876Z,29.92
2019-03-10T11:36:11.078Z,30.70
2019-03-10T11:38:49.384Z,31.68
2019-03-10T11:41:33.427Z,43.13
2019-03-10T11:44:01.141Z,48.13
2019-03-10T11:46:43.942Z,50.23
2019-03-10T11:49:19.299Z,94.70
2019-03-10T11:51:57.864Z,68.05
2019-03-10T11:54:42.119Z,59.40
2019-03-10T11:57:29.119Z,86.87
2019-03-10T12:00:09.839Z,74.47
2019-03-10T12:02:48.917Z,85.90
2019-03-10T12:05:30.110Z,47.93
2019-03-10T12:08:17.172Z,67.32
2019-03-10T12:10:50.873Z,66.80
2019-03-10T12:13:27.150Z,58.38
2019-03-10T12:16:00.879Z,50.80
2019-03-10T12:18:34.686Z,53.42
2019-03-10T12:21:08.531Z,47.38
2019-03-10T12:23:43.708Z,45.50
2019-03-10T12:26:18.109Z,53.63
2019-03-10T12:28:52.002Z,48.87
2019-03-10T12:31:25.902Z,50.30
2019-03-10T12:33:59.770Z,48.65
2019-03-10T12:36:36.608Z,55.10
2019-03-10T12:39:10.783Z,47.27
2019-03-10T12:41:44.780Z,48.15
2019-03-10T12:44:18.677Z,55.73
2019-03-10T12:46:54.304Z,57.33
2019-03-10T12:49:29.345Z,54.63
2019-03-10T12:52:03.196Z,51.37
2019-03-10T12:54:36.621Z,53.75
2019-03-10T12:57:10.456Z,50.15
2019-03-10T12:59:44.226Z,50.45
2019-03-10T13:02:20.047Z,49.10
2019-03-10T13:04:54.153Z,47.67
2019-03-10T13:07:27.866Z,51.85
2019-03-10T13:10:01.280Z,51.83
2019-03-10T13:12:48.107Z,56.70
2019-03-10T13:15:22.006Z,55.12
2019-03-10T13:17:55.861Z,53.20
2019-03-10T13:20:29.820Z,55.05
2019-03-10T13:23:04.026Z,53.58
2019-03-10T13:25:37.347Z,61.25
2019-03-10T13:28:11.146Z,60.05
2019-03-10T13:30:45.071Z,59.08
2019-03-10T13:33:18.906Z,61.23
2019-03-10T13:35:53.402Z,57.83
2019-03-10T13:38:27.653Z,62.58
2019-03-10T13:41:02.555Z,59.73
2019-03-10T13:43:37.183Z,59.70
2019-03-10T13:46:10.857Z,59.18
2019-03-10T13:48:44.823Z,53.02
2019-03-10T13:51:18.064Z,51.30
2019-03-10T13:53:51.639Z,50.52
2019-03-10T13:56:27.264Z,54.90
2019-03-10T13:59:00.639Z,58.48
2019-03-10T14:01:34.387Z,58.35
2019-03-10T14:04:08.638Z,55.38
2019-03-10T14:06:41.882Z,54.60
2019-03-10T14:09:15.377Z,57.55
2019-03-10T14:11:50.631Z,55.05
2019-03-10T14:14:25.152Z,59.42
2019-03-10T14:16:58.436Z,62.40
2019-03-10T14:19:32.096Z,57.53
2019-03-10T14:22:05.816Z,60.83
2019-03-10T14:24:40.009Z,58.83
2019-03-10T14:27:13.582Z,61.23
2019-03-10T14:29:47.843Z,55.33
2019-03-10T14:32:21.783Z,60.17
2019-03-10T14:34:56.606Z,61.13
2019-03-10T14:37:31.534Z,63.45
2019-03-10T14:40:05.635Z,59.95
2019-03-10T14:42:38.989Z,58.17
2019-03-10T14:45:19.209Z,61.53
2019-03-10T14:47:52.728Z,65.00
2019-03-10T14:50:26.612Z,69.42
2019-03-10T14:53:00.111Z,69.62
2019-03-10T14:55:34.654Z,62.20
2019-03-10T14:58:08.688Z,67.78
2019-03-10T15:00:42.787Z,71.45
2019-03-10T15:03:16.235Z,73.10
2019-03-10T15:05:50.371Z,67.03
2019-03-10T15:08:25.429Z,68.02
2019-03-10T15:11:00.483Z,65.00
2019-03-10T15:13:35.141Z,64.82
2019-03-10T15:16:09.245Z,66.22
2019-03-10T15:18:42.917Z,67.12
2019-03-10T15:21:19.304Z,66.95
2019-03-10T15:23:51.104Z,65.20
2019-03-10T15:26:24.869Z,63.73
2019-03-10T15:28:59.084Z,63.63
2019-03-10T15:31:32.786Z,66.15
2019-03-10T15:34:06.511Z,68.00
2019-03-10T15:36:42.450Z,70.92
2019-03-10T15:39:17.658Z,70.42
2019-03-10T15:41:52.108Z,68.40
2019-03-10T15:44:25.938Z,70.65
2019-03-10T15:46:59.968Z,68.90
2019-03-10T15:49:34.716Z,68.33
2019-03-10T15:52:09.088Z,68.95
2019-03-10T15:54:42.388Z,66.77
2019-03-10T15:57:16.044Z,72.12
2019-03-10T15:59:49.519Z,69.72
2019-03-10T16:02:23.746Z,69.58
2019-03-10T16:04:57.435Z,72.85
2019-03-10T16:07:30.987Z,71.05
2019-03-10T16:10:08.223Z,71.82
2019-03-10T16:12:42.766Z,73.00
2019-03-10T16:15:20.565Z,68.80
2019-03-10T16:17:54.527Z,73.47
2019-03-10T16:20:28.143Z,72.17
2019-03-10T16:23:02.305Z,72.82
2019-03-10T16:25:35.729Z,73.67
2019-03-10T16:28:09.586Z,73.20
2019-03-10T16:30:42.974Z,73.05
2019-03-10T16:33:16.695Z,75.30
2019-03-10T16:35:50.421Z,71.02
2019-03-10T16:38:24.055Z,73.80
2019-03-10T16:40:57.947Z,72.97
2019-03-10T16:43:32.046Z,71.90
2019-03-10T16:46:05.753Z,72.03
2019-03-10T16:48:39.705Z,71.67
2019-03-10T16:51:13.275Z,70.97
2019-03-10T16:53:47.115Z,70.60
2019-03-10T16:56:21.491Z,73.28
2019-03-10T16:58:56.584Z,71.57
2019-03-10T17:01:29.800Z,74.55
2019-03-10T17:04:03.415Z,71.25
2019-03-10T17:06:38.026Z,71.57
2019-03-10T17:09:18.995Z,71.45
2019-03-10T17:11:52.597Z,72.80
2019-03-10T17:14:28.405Z,70.17
2019-03-10T17:17:01.615Z,74.53
2019-03-10T17:19:35.005Z,72.92
2019-03-10T17:22:08.347Z,66.95
2019-03-10T17:24:42.215Z,67.72
2019-03-10T17:27:15.602Z,67.82
2019-03-10T17:29:49.323Z,70.32
2019-03-10T17:32:22.553Z,70.30
2019-03-10T17:34:56.287Z,71.35
2019-03-10T17:37:30.106Z,71.55
2019-03-10T17:40:03.925Z,72.22
2019-03-10T17:42:37.615Z,73.85
2019-03-10T17:45:14.148Z,70.30
2019-03-10T17:47:47.699Z,67.95
2019-03-10T17:50:21.377Z,70.57
2019-03-10T17:52:55.285Z,70.52
2019-03-10T17:55:29.171Z,69.87
2019-03-10T17:58:03.023Z,70.83
2019-03-10T18:00:39.160Z,79.65
2019-03-10T18:03:12.584Z,71.72
2019-03-10T18:05:46.551Z,72.20
2019-03-10T18:08:20.118Z,68.67
2019-03-10T18:10:53.581Z,69.45
2019-03-10T18:13:27.605Z,69.37
2019-03-10T18:16:01.035Z,68.70
2019-03-10T18:18:34.792Z,70.52
2019-03-10T18:21:10.482Z,72.05
2019-03-10T18:23:45.788Z,69.07
2019-03-10T18:26:19.224Z,65.25
2019-03-10T18:28:52.579Z,67.92
2019-03-10T18:31:26.132Z,65.17
2019-03-10T18:33:59.432Z,66.15
2019-03-10T18:36:33.133Z,66.05
2019-03-10T18:39:07.512Z,64.87
2019-03-10T18:41:41.526Z,66.72
2019-03-10T18:44:14.856Z,67.97
2019-03-10T18:46:48.207Z,65.75
2019-03-10T18:49:22.900Z,66.02
2019-03-10T18:51:56.599Z,68.10
2019-03-10T18:54:31.089Z,67.55
2019-03-10T18:57:04.664Z,67.47
2019-03-10T18:59:38.577Z,64.95
2019-03-10T19:02:12.199Z,65.90
2019-03-10T19:04:45.879Z,64.67
2019-03-10T19:07:19.235Z,65.87
2019-03-10T19:09:52.427Z,65.60
2019-03-10T19:12:25.819Z,70.00
2019-03-10T19:14:59.145Z,70.15
2019-03-10T19:17:32.651Z,70.05
2019-03-10T19:20:06.480Z,68.92
2019-03-10T19:22:40.243Z,70.42
2019-03-10T19:25:14.625Z,69.37
2019-03-10T19:27:48.333Z,69.00
2019-03-10T19:30:22.549Z,68.28
2019-03-10T19:32:56.852Z,71.45
2019-03-10T19:35:30.354Z,69.60
2019-03-10T19:38:04.693Z,69.30
2019-03-10T19:40:38.368Z,67.00
2019-03-10T19:43:11.848Z,72.80
2019-03-10T19:45:45.191Z,72.92
2019-03-10T19:48:18.908Z,72.15
2019-03-10T19:50:52.156Z,74.47
2019-03-10T19:53:25.886Z,71.70
2019-03-10T19:55:59.205Z,70.08
2019-03-10T19:58:32.943Z,72.82
2019-03-10T20:01:06.572Z,74.62
2019-03-10T20:03:40.307Z,76.37
2019-03-10T20:06:13.639Z,74.60
2019-03-10T20:08:47.120Z,71.55
2019-03-10T20:11:20.803Z,73.90
2019-03-10T20:13:54.547Z,72.60
2019-03-10T20:16:28.171Z,76.80
2019-03-10T20:19:01.993Z,84.15
2019-03-10T20:21:38.291Z,81.82
2019-03-10T20:24:12.267Z,82.05
2019-03-10T20:26:45.904Z,79.32
2019-03-10T20:29:19.386Z,81.42
2019-03-10T20:31:53.090Z,84.92
2019-03-10T20:34:26.468Z,79.85
2019-03-10T20:37:01.190Z,80.97
2019-03-10T20:39:36.395Z,76.67
2019-03-10T20:42:11.997Z,73.28
2019-03-10T20:44:45.296Z,73.70
2019-03-10T20:47:18.779Z,74.50
2019-03-10T20:49:52.500Z,72.85
2019-03-10T20:52:25.822Z,72.37
2019-03-10T20:54:59.536Z,73.85
2019-03-10T20:57:33.379Z,73.33
2019-03-10T21:00:07.997Z,72.25
2019-03-10T21:02:41.707Z,74.80
2019-03-10T21:05:15.542Z,74.05
2019-03-10T21:07:48.971Z,74.30
2019-03-10T21:10:23.019Z,72.08
2019-03-10T21:12:56.314Z,71.20
2019-03-10T21:15:29.959Z,72.97
2019-03-10T21:18:03.285Z,78.15
2019-03-10T21:20:36.719Z,72.58
2019-03-10T21:23:09.957Z,70.75
2019-03-10T21:25:43.778Z,71.80
2019-03-10T21:28:18.299Z,71.10
2019-03-10T21:30:52.004Z,71.55
2019-03-10T21:33:25.647Z,72.80
2019-03-10T21:36:00.480Z,74.03
2019-03-10T21:38:33.810Z,71.25
2019-03-10T21:41:14.007Z,73.05
2019-03-10T21:43:42.430Z,71.70
2019-03-10T21:46:16.243Z,72.22
2019-03-10T21:48:50.100Z,71.10
2019-03-10T21:51:23.512Z,70.83
2019-03-10T21:53:57.111Z,74.00
2019-03-10T21:56:31.286Z,73.70
2019-03-10T21:59:04.842Z,74.65
2019-03-10T22:01:38.607Z,75.87
2019-03-10T22:04:12.987Z,75.83
2019-03-10T22:06:46.432Z,83.30
2019-03-10T22:09:19.639Z,85.42
2019-03-10T22:11:53.489Z,85.50
2019-03-10T22:14:28.748Z,83.17
2019-03-10T22:17:02.712Z,83.90
2019-03-10T22:19:36.164Z,82.95
2019-03-10T22:22:09.861Z,84.97
2019-03-10T22:24:43.251Z,90.42
2019-03-10T22:27:16.971Z,87.78
2019-03-10T22:29:50.183Z,83.65
2019-03-10T22:32:23.782Z,82.17
2019-03-10T22:34:57.027Z,82.95
2019-03-10T22:37:30.746Z,88.12
2019-03-10T22:40:04.490Z,90.03
2019-03-10T22:42:39.851Z,87.57
2019-03-10T22:45:15.896Z,85.57
2019-03-10T22:47:49.310Z,83.12
2019-03-10T22:50:23.142Z,78.22
2019-03-10T22:52:56.527Z,77.32
2019-03-10T22:55:30.192Z,67.00
2019-03-10T22:58:03.612Z,65.70
2019-03-10T23:00:40.976Z,67.95
2019-03-10T23:03:16.727Z,89.42
2019-03-10T23:05:51.398Z,73.47
2019-03-10T23:08:25.258Z,67.65
2019-03-10T23:10:58.633Z,68.02
2019-03-10T23:13:32.156Z,69.47
2019-03-10T23:16:05.473Z,73.35
2019-03-10T23:18:39.187Z,73.50
2019-03-10T23:21:12.593Z,71.30
2019-03-10T23:23:46.880Z,71.15
2019-03-10T23:26:20.430Z,74.03
2019-03-10T23:28:55.195Z,71.28
2019-03-10T23:31:28.491Z,69.67
2019-03-10T23:34:01.951Z,71.40
2019-03-10T23:36:35.543Z,67.78
2019-03-10T23:39:09.728Z,70.62
2019-03-10T23:41:44.826Z,69.32
2019-03-10T23:44:18.971Z,71.00
2019-03-10T23:46:52.939Z,77.08
2019-03-10T23:49:26.796Z,74.22
2019-03-10T23:52:00.652Z,70.35
2019-03-10T23:54:34.116Z,70.87
2019-03-10T23:57:07.791Z,68.80
2019-03-10T23:59:41.469Z,66.92
